Time;durP1;ratioP1;P1;durP2;ratioP2;P2;SDS_P1;SDS_P2;PMS_P1;PMS_P2;Temp;Humidity;BMP_temperature;BMP_pressure;BME280_temperature;BME280_humidity;BME280_pressure;Samples;Min_cycle;Max_cycle;Signal;HPM_P1;HPM_P2
2022/01/12 00:00:10;;;;;;;41.92;18.60;;;;;;;;;;2250120;60;21609;-76
2022/01/12 00:02:37;;;;;;;41.03;17.55;;;;;;;;;;2250701;60;21135;-76
2022/01/12 00:05:04;;;;;;;42.85;18.35;;;;;;;;;;2250078;60;21072;-76
2022/01/12 00:07:31;;;;;;;34.55;15.23;;;;;;;;;;2250060;60;21073;-75
2022/01/12 00:09:58;;;;;;;46.00;18.10;;;;;;;;;;2249814;60;21115;-76
2022/01/12 00:12:26;;;;;;;36.10;15.98;;;;;;;;;;2476334;56;21610;-75
2022/01/12 00:14:53;;;;;;;37.90;17.30;;;;;;;;;;2250154;60;21060;-76
2022/01/12 00:17:20;;;;;;;47.20;18.35;;;;;;;;;;2475724;55;21059;-76
2022/01/12 00:19:47;;;;;;;40.28;17.73;;;;;;;;;;2249818;60;21534;-76
2022/01/12 00:22:14;;;;;;;38.08;17.17;;;;;;;;;;2250638;60;21059;-75
2022/01/12 00:25:03;;;;;;;32.00;14.55;;;;;;;;;;2250547;60;21102;-76
2022/01/12 00:33:11;;;;;;;38.10;15.82;;;;;;;;;;2250249;60;21072;-75
2022/01/12 00:35:39;;;;;;;36.85;17.05;;;;;;;;;;2476227;56;21107;-76
2022/01/12 00:38:06;;;;;;;37.97;17.35;;;;;;;;;;2250176;60;21103;-76
2022/01/12 00:40:33;;;;;;;37.00;16.37;;;;;;;;;;2475677;55;21469;-75
2022/01/12 00:43:00;;;;;;;39.85;17.40;;;;;;;;;;2250060;60;21055;-76
2022/01/12 00:45:28;;;;;;;42.72;18.27;;;;;;;;;;2249819;60;21071;-75
2022/01/12 00:47:55;;;;;;;43.50;18.75;;;;;;;;;;2250165;60;21055;-76
2022/01/12 00:50:22;;;;;;;34.00;17.23;;;;;;;;;;2249342;60;21115;-75
2022/01/12 00:52:49;;;;;;;38.63;17.48;;;;;;;;;;2476124;55;21064;-76
2022/01/12 00:55:16;;;;;;;36.10;17.25;;;;;;;;;;2475784;56;21330;-74
2022/01/12 00:57:43;;;;;;;38.17;16.85;;;;;;;;;;2249863;60;21136;-76
2022/01/12 01:00:11;;;;;;;37.10;17.73;;;;;;;;;;2249175;60;21064;-76
2022/01/12 01:02:38;;;;;;;35.63;15.90;;;;;;;;;;2476140;55;21124;-75
2022/01/12 01:05:06;;;;;;;34.78;16.48;;;;;;;;;;2249668;60;21052;-75
2022/01/12 01:07:33;;;;;;;36.78;15.32;;;;;;;;;;2249974;60;21060;-73
2022/01/12 01:10:06;;;;;;;35.00;16.60;;;;;;;;;;2249394;60;21614;-76
2022/01/12 01:12:33;;;;;;;;;;;;;;;;;;2253383;60;21155;-73
2022/01/12 01:15:04;;;;;;;35.72;17.77;;;;;;;;;;2249693;60;20104;-76
2022/01/12 01:25:50;;;;;;;41.20;20.10;;;;;;;;;;2250092;60;20979;-76
2022/01/12 01:28:17;;;;;;;37.72;20.23;;;;;;;;;;2250028;60;21571;-76
2022/01/12 01:30:44;;;;;;;36.50;19.23;;;;;;;;;;2249439;60;21602;-73
2022/01/12 01:33:14;;;;;;;37.70;18.08;;;;;;;;;;2249985;60;21550;-76
2022/01/12 01:35:44;;;;;;;40.03;20.20;;;;;;;;;;2250094;60;21056;-77
2022/01/12 01:38:11;;;;;;;34.60;17.48;;;;;;;;;;2249901;60;21534;-73
2022/01/12 01:40:42;;;;;;;39.58;19.00;;;;;;;;;;2249528;60;21052;-75
2022/01/12 01:43:17;;;;;;;43.17;17.85;;;;;;;;;;2249611;60;21500;-73
2022/01/12 01:54:03;;;;;;;38.38;19.92;;;;;;;;;;2249897;60;21043;-76
2022/01/12 01:56:30;;;;;;;42.13;20.20;;;;;;;;;;2250178;60;21068;-75
2022/01/12 01:58:57;;;;;;;39.45;19.50;;;;;;;;;;2249241;60;21059;-76
2022/01/12 02:01:24;;;;;;;45.63;22.83;;;;;;;;;;2250086;60;21067;-74
2022/01/12 02:03:54;;;;;;;43.53;19.45;;;;;;;;;;2476109;55;21551;-76
2022/01/12 02:06:21;;;;;;;47.70;22.85;;;;;;;;;;2249702;60;21052;-76
2022/01/12 02:08:48;;;;;;;41.15;19.98;;;;;;;;;;2250011;60;21107;-76
2022/01/12 02:11:15;;;;;;;42.85;21.77;;;;;;;;;;2249894;60;21076;-76
2022/01/12 02:13:42;;;;;;;49.35;21.35;;;;;;;;;;2249913;60;21092;-73
2022/01/12 02:16:09;;;;;;;47.38;23.02;;;;;;;;;;2475901;55;21067;-75
2022/01/12 02:18:53;;;;;;;44.47;21.27;;;;;;;;;;2250256;60;21143;-76
2022/01/12 02:35:33;;;;;;;47.40;21.92;;;;;;;;;;2249922;60;21000;-76
2022/01/12 02:40:49;;;;;;;46.53;22.37;;;;;;;;;;2249539;60;21123;-76
2022/01/12 02:43:26;;;;;;;50.95;23.05;;;;;;;;;;2249789;60;21119;-75
2022/01/12 02:51:32;;;;;;;55.00;25.73;;;;;;;;;;2249977;60;21015;-75
2022/01/12 02:53:59;;;;;;;43.42;21.98;;;;;;;;;;2250198;60;21079;-76
2022/01/12 02:56:27;;;;;;;58.92;24.35;;;;;;;;;;2249968;60;21131;-75
2022/01/12 02:58:58;;;;;;;60.75;25.00;;;;;;;;;;2475700;55;21123;-75
2022/01/12 03:02:03;;;;;;;59.90;25.80;;;;;;;;;;2250130;60;21059;-78
2022/01/12 03:04:30;;;;;;;49.25;22.27;;;;;;;;;;2250099;60;21182;-76
2022/01/12 03:07:05;;;;;;;53.78;24.67;;;;;;;;;;2250157;60;21108;-77
2022/01/12 03:09:32;;;;;;;62.90;26.83;;;;;;;;;;2249859;60;21358;-77
2022/01/12 03:11:59;;;;;;;54.08;23.83;;;;;;;;;;2250738;60;21063;-76
2022/01/12 03:14:26;;;;;;;65.00;27.05;;;;;;;;;;2249646;60;21055;-77
2022/01/12 03:16:53;;;;;;;50.45;23.83;;;;;;;;;;2249967;60;21067;-76
2022/01/12 03:19:20;;;;;;;59.38;24.10;;;;;;;;;;2250249;60;21051;-77
2022/01/12 03:21:47;;;;;;;63.80;27.23;;;;;;;;;;2476695;55;21124;-76
2022/01/12 03:24:14;;;;;;;64.03;29.33;;;;;;;;;;2250335;60;21055;-77
2022/01/12 03:26:41;;;;;;;57.00;25.45;;;;;;;;;;2250758;60;21155;-73
2022/01/12 03:29:08;;;;;;;64.07;29.33;;;;;;;;;;2475555;55;21060;-77
2022/01/12 03:31:36;;;;;;;57.90;26.67;;;;;;;;;;2250180;60;21071;-74
2022/01/12 03:34:09;;;;;;;66.78;29.23;;;;;;;;;;2476519;55;21044;-77
2022/01/12 03:36:42;;;;;;;58.42;25.73;;;;;;;;;;2476645;55;21071;-77
2022/01/12 03:39:08;;;;;;;;;;;;;;;;;;2253600;60;21071;-76
2022/01/12 03:41:36;;;;;;;51.17;21.70;;;;;;;;;;2249810;60;20303;-76
2022/01/12 03:44:04;;;;;;;59.08;26.98;;;;;;;;;;2249509;60;21060;-76
2022/01/12 03:46:37;;;;;;;58.17;25.48;;;;;;;;;;2249446;60;21642;-76
2022/01/12 03:49:04;;;;;;;54.80;22.23;;;;;;;;;;2249557;60;21151;-77
2022/01/12 03:51:31;;;;;;;54.25;23.50;;;;;;;;;;2475731;55;21060;-75
2022/01/12 03:53:58;;;;;;;64.53;27.37;;;;;;;;;;2250034;60;21127;-76
2022/01/12 03:56:25;;;;;;;69.43;30.10;;;;;;;;;;2248995;60;21055;-73
2022/01/12 03:58:52;;;;;;;65.20;27.48;;;;;;;;;;2248871;60;21134;-76
2022/01/12 04:01:19;;;;;;;67.65;27.85;;;;;;;;;;2249775;60;21112;-76
2022/01/12 04:03:57;;;;;;;64.55;29.00;;;;;;;;;;2249561;60;21131;-75
2022/01/12 04:09:09;;;;;;;52.45;25.55;;;;;;;;;;2249441;59;21143;-76
2022/01/12 04:11:36;;;;;;;53.90;26.30;;;;;;;;;;2249754;60;21052;-76
2022/01/12 04:14:04;;;;;;;60.55;26.12;;;;;;;;;;2249640;60;21047;-76
2022/01/12 04:16:31;;;;;;;65.18;27.35;;;;;;;;;;2476430;56;21040;-76
2022/01/12 04:18:58;;;;;;;69.70;27.80;;;;;;;;;;2249436;60;21571;-73
2022/01/12 04:21:28;;;;;;;55.72;27.25;;;;;;;;;;2249528;60;21075;-76
2022/01/12 04:23:55;;;;;;;64.12;28.33;;;;;;;;;;2249614;60;21054;-76
2022/01/12 04:26:23;;;;;;;52.22;24.35;;;;;;;;;;2307755;54;21428;-75
2022/01/12 04:28:50;;;;;;;61.83;25.10;;;;;;;;;;2328549;57;21093;-75
2022/01/12 04:31:17;;;;;;;57.08;25.33;;;;;;;;;;2521110;54;21051;-76
2022/01/12 04:33:45;;;;;;;54.03;26.98;;;;;;;;;;2303497;58;21540;-76
2022/01/12 04:36:13;;;;;;;60.83;25.33;;;;;;;;;;2303992;58;21045;-76
2022/01/12 04:38:41;;;;;;;57.08;26.17;;;;;;;;;;2418556;54;21066;-76
2022/01/12 04:41:09;;;;;;;58.42;25.80;;;;;;;;;;2303593;58;21197;-76
2022/01/12 04:43:37;;;;;;;55.50;23.75;;;;;;;;;;2303534;58;21595;-75
2022/01/12 04:46:23;;;;;;;55.70;25.62;;;;;;;;;;2303869;58;21100;-75
2022/01/12 04:48:55;;;;;;;60.00;27.15;;;;;;;;;;2303605;58;21050;-76
2022/01/12 04:51:25;;;;;;;54.97;25.75;;;;;;;;;;2303961;58;21102;-75
2022/01/12 04:53:53;;;;;;;51.30;23.75;;;;;;;;;;2304042;58;21125;-75
2022/01/12 04:56:20;;;;;;;49.53;21.83;;;;;;;;;;2304144;58;21057;-75
2022/01/12 04:58:47;;;;;;;53.60;24.67;;;;;;;;;;2303518;58;21582;-75
2022/01/12 05:01:23;;;;;;;52.33;23.58;;;;;;;;;;2304278;58;21061;-75
2022/01/12 05:06:54;;;;;;;60.40;25.75;;;;;;;;;;2303667;54;21545;-75
2022/01/12 05:09:43;;;;;;;53.10;23.60;;;;;;;;;;2303963;58;21061;-77
2022/01/12 05:15:09;;;;;;;63.60;27.13;;;;;;;;;;2307867;57;21390;-77
2022/01/12 05:17:36;;;;;;;56.28;24.80;;;;;;;;;;2541343;54;21118;-76
2022/01/12 05:20:04;;;;;;;59.53;25.95;;;;;;;;;;2541646;54;21057;-77
2022/01/12 05:22:31;;;;;;;52.30;24.52;;;;;;;;;;2304118;58;21069;-76
2022/01/12 05:24:58;;;;;;;57.47;25.62;;;;;;;;;;2304250;58;21054;-76
2022/01/12 05:27:25;;;;;;;55.75;26.20;;;;;;;;;;2303928;58;21030;-76
2022/01/12 05:29:52;;;;;;;63.03;26.40;;;;;;;;;;2304076;58;21050;-76
2022/01/12 05:32:19;;;;;;;67.10;29.75;;;;;;;;;;2304027;58;21058;-76
2022/01/12 05:34:46;;;;;;;55.30;25.98;;;;;;;;;;2304006;58;21157;-76
2022/01/12 05:37:13;;;;;;;54.33;24.05;;;;;;;;;;2304384;58;21066;-77
2022/01/12 05:39:40;;;;;;;57.75;25.55;;;;;;;;;;2303887;58;21117;-77
2022/01/12 05:42:08;;;;;;;53.67;26.45;;;;;;;;;;2304240;58;21541;-76
2022/01/12 05:44:36;;;;;;;59.65;26.02;;;;;;;;;;2396628;54;21134;-77
2022/01/12 05:47:05;;;;;;;54.67;24.37;;;;;;;;;;2303928;58;21292;-76
2022/01/12 05:49:36;;;;;;;61.13;26.02;;;;;;;;;;2301895;58;21050;-77
2022/01/12 05:52:04;;;;;;;60.42;25.75;;;;;;;;;;2302360;58;21046;-77
2022/01/12 05:54:31;;;;;;;65.95;26.48;;;;;;;;;;2303498;58;21165;-76
2022/01/12 05:56:58;;;;;;;61.58;25.95;;;;;;;;;;2431072;54;21034;-76
2022/01/12 05:59:25;;;;;;;62.47;26.27;;;;;;;;;;2304171;58;21130;-77
2022/01/12 06:01:52;;;;;;;54.90;23.65;;;;;;;;;;2304394;58;21117;-76
2022/01/12 06:04:19;;;;;;;60.58;25.65;;;;;;;;;;2304032;58;21102;-76
2022/01/12 06:06:46;;;;;;;66.07;25.90;;;;;;;;;;2304600;58;21102;-76
2022/01/12 06:09:13;;;;;;;58.03;24.95;;;;;;;;;;2303812;58;21101;-77
2022/01/12 06:11:40;;;;;;;50.00;22.20;;;;;;;;;;2304177;58;21026;-76
2022/01/12 06:14:08;;;;;;;56.17;24.12;;;;;;;;;;2304264;58;21046;-76
2022/01/12 06:16:35;;;;;;;58.58;25.85;;;;;;;;;;2304683;58;21041;-75
2022/01/12 06:19:02;;;;;;;66.18;26.73;;;;;;;;;;2303260;58;21082;-76
2022/01/12 06:21:29;;;;;;;63.15;25.67;;;;;;;;;;2304246;58;21616;-75
2022/01/12 06:23:56;;;;;;;52.00;24.60;;;;;;;;;;2324066;54;21105;-76
2022/01/12 06:26:25;;;;;;;60.65;23.35;;;;;;;;;;2304642;58;21062;-76
2022/01/12 06:31:43;;;;;;;59.28;23.25;;;;;;;;;;2323026;55;21184;-76
2022/01/12 06:34:10;;;;;;;61.72;21.90;;;;;;;;;;2304368;58;21110;-76
2022/01/12 06:36:37;;;;;;;54.83;22.80;;;;;;;;;;2304548;58;21062;-76
2022/01/12 06:39:06;;;;;;;62.75;24.48;;;;;;;;;;2304212;58;21050;-76
2022/01/12 06:41:33;;;;;;;77.55;25.88;;;;;;;;;;2304406;58;21062;-76
2022/01/12 06:44:00;;;;;;;58.63;23.12;;;;;;;;;;2304422;58;21026;-76
2022/01/12 06:46:30;;;;;;;68.87;26.15;;;;;;;;;;2523178;54;21058;-76
2022/01/12 06:48:57;;;;;;;57.95;23.45;;;;;;;;;;2304205;58;21121;-76
2022/01/12 06:51:24;;;;;;;59.35;22.65;;;;;;;;;;2304402;58;21062;-76
2022/01/12 06:53:53;;;;;;;63.47;24.75;;;;;;;;;;2542312;54;21038;-77
2022/01/12 06:56:20;;;;;;;47.05;20.02;;;;;;;;;;2304260;58;21052;-76
2022/01/12 06:58:47;;;;;;;55.50;21.90;;;;;;;;;;2303868;58;21132;-77
2022/01/12 07:01:14;;;;;;;56.78;23.02;;;;;;;;;;2304372;58;21134;-76
2022/01/12 07:03:41;;;;;;;57.65;22.40;;;;;;;;;;2304523;58;21081;-76
2022/01/12 07:06:08;;;;;;;49.35;20.12;;;;;;;;;;2304304;58;21046;-76
2022/01/12 07:08:36;;;;;;;62.08;22.87;;;;;;;;;;2304595;58;21058;-76
2022/01/12 07:11:04;;;;;;;54.25;20.15;;;;;;;;;;2303952;58;21122;-76
2022/01/12 07:13:31;;;;;;;72.78;24.70;;;;;;;;;;2304343;58;21057;-76
2022/01/12 07:15:58;;;;;;;66.37;23.42;;;;;;;;;;2542345;54;21062;-76
2022/01/12 07:18:26;;;;;;;63.72;22.15;;;;;;;;;;2304265;58;21548;-76
2022/01/12 07:20:53;;;;;;;74.28;23.23;;;;;;;;;;2303846;58;21050;-76
2022/01/12 07:23:20;;;;;;;68.12;24.58;;;;;;;;;;2304345;58;21102;-76
2022/01/12 07:25:47;;;;;;;53.50;20.95;;;;;;;;;;2304369;58;21058;-76
2022/01/12 07:28:14;;;;;;;67.05;24.55;;;;;;;;;;2304360;58;21125;-76
2022/01/12 07:30:41;;;;;;;56.03;21.83;;;;;;;;;;2303776;58;21101;-76
2022/01/12 07:33:08;;;;;;;59.65;21.67;;;;;;;;;;2304284;58;21133;-76
2022/01/12 07:35:35;;;;;;;49.85;18.85;;;;;;;;;;2304484;58;21046;-76
2022/01/12 07:38:02;;;;;;;53.40;18.87;;;;;;;;;;2304434;58;21094;-76
2022/01/12 07:40:29;;;;;;;59.35;21.58;;;;;;;;;;2303859;58;21124;-76
2022/01/12 07:42:57;;;;;;;62.50;19.98;;;;;;;;;;2304708;55;21200;-76
2022/01/12 07:45:24;;;;;;;64.93;22.67;;;;;;;;;;2304395;58;21097;-76
2022/01/12 07:47:51;;;;;;;59.72;21.95;;;;;;;;;;2304374;58;21357;-76
2022/01/12 07:50:18;;;;;;;67.47;22.92;;;;;;;;;;2303845;58;21578;-77
2022/01/12 07:52:45;;;;;;;55.65;20.10;;;;;;;;;;2304401;58;21054;-76
2022/01/12 07:55:13;;;;;;;59.05;20.90;;;;;;;;;;2304286;58;21093;-76
2022/01/12 07:57:42;;;;;;;57.88;21.10;;;;;;;;;;2304501;58;21161;-76
2022/01/12 08:00:13;;;;;;;46.67;19.10;;;;;;;;;;2303854;58;21045;-76
2022/01/12 08:02:40;;;;;;;62.03;22.25;;;;;;;;;;2304636;58;21683;-75
2022/01/12 08:05:08;;;;;;;55.15;20.42;;;;;;;;;;2303836;58;21069;-76
2022/01/12 08:07:38;;;;;;;54.58;18.15;;;;;;;;;;2304255;58;21062;-77
2022/01/12 08:10:06;;;;;;;54.53;19.25;;;;;;;;;;2303558;58;21065;-76
2022/01/12 08:12:33;;;;;;;47.58;19.45;;;;;;;;;;2304336;58;21060;-76
2022/01/12 08:15:00;;;;;;;57.62;19.62;;;;;;;;;;2304278;58;21098;-76
2022/01/12 08:17:27;;;;;;;54.90;20.00;;;;;;;;;;2304286;58;21046;-76
2022/01/12 08:19:56;;;;;;;51.42;19.25;;;;;;;;;;2303801;58;21062;-76
2022/01/12 08:22:23;;;;;;;54.53;19.65;;;;;;;;;;2304603;58;21045;-76
2022/01/12 08:24:50;;;;;;;63.10;21.12;;;;;;;;;;2421197;54;21054;-76
2022/01/12 08:27:18;;;;;;;59.78;20.23;;;;;;;;;;2304540;58;21138;-76
2022/01/12 08:29:45;;;;;;;39.22;15.65;;;;;;;;;;2303744;58;21045;-76
2022/01/12 08:32:12;;;;;;;51.60;18.90;;;;;;;;;;2304761;58;21113;-76
2022/01/12 08:34:39;;;;;;;63.05;20.48;;;;;;;;;;2304422;58;21719;-76
2022/01/12 08:37:07;;;;;;;62.05;21.17;;;;;;;;;;2416646;54;21050;-76
2022/01/12 08:39:35;;;;;;;48.58;16.23;;;;;;;;;;2303963;58;21121;-76
2022/01/12 08:42:02;;;;;;;56.08;18.98;;;;;;;;;;2302010;58;21460;-76
2022/01/12 08:44:29;;;;;;;48.20;18.33;;;;;;;;;;2455893;54;21058;-76
2022/01/12 08:46:56;;;;;;;55.83;20.08;;;;;;;;;;2303643;58;21146;-76
2022/01/12 08:49:23;;;;;;;53.85;20.80;;;;;;;;;;2303604;58;21062;-75
2022/01/12 08:51:50;;;;;;;47.33;17.10;;;;;;;;;;2304521;58;21133;-76
2022/01/12 08:54:18;;;;;;;56.95;20.62;;;;;;;;;;2303801;58;21054;-76
2022/01/12 08:56:46;;;;;;;57.25;21.15;;;;;;;;;;2304332;58;21066;-76
2022/01/12 08:59:13;;;;;;;51.17;19.00;;;;;;;;;;2304185;58;21105;-76
2022/01/12 09:01:40;;;;;;;56.47;20.23;;;;;;;;;;2304498;58;21070;-75
2022/01/12 09:04:08;;;;;;;51.67;19.23;;;;;;;;;;2304487;58;21070;-76
2022/01/12 09:06:35;;;;;;;57.13;19.12;;;;;;;;;;2304373;58;21125;-76
2022/01/12 09:09:03;;;;;;;52.13;18.87;;;;;;;;;;2304055;58;21352;-76
2022/01/12 09:11:30;;;;;;;51.95;21.33;;;;;;;;;;2304435;58;21038;-75
2022/01/12 09:13:57;;;;;;;59.83;19.98;;;;;;;;;;2304510;58;21105;-76
2022/01/12 09:16:24;;;;;;;61.35;20.58;;;;;;;;;;2304288;58;22183;-75
2022/01/12 09:18:52;;;;;;;50.28;18.77;;;;;;;;;;2303601;58;21038;-76
2022/01/12 09:21:19;;;;;;;52.20;19.65;;;;;;;;;;2304323;58;21053;-75
2022/01/12 09:23:48;;;;;;;56.85;21.10;;;;;;;;;;2304552;58;21045;-76
2022/01/12 09:26:16;;;;;;;56.20;21.12;;;;;;;;;;2304452;55;21128;-76
2022/01/12 09:28:43;;;;;;;61.55;20.62;;;;;;;;;;2304007;58;21082;-76
2022/01/12 09:31:10;;;;;;;54.97;18.65;;;;;;;;;;2303973;58;21102;-75
2022/01/12 09:33:37;;;;;;;56.47;20.08;;;;;;;;;;2307596;54;21620;-75
2022/01/12 09:36:05;;;;;;;59.22;19.23;;;;;;;;;;2304412;58;21046;-75
2022/01/12 09:38:33;;;;;;;54.53;18.50;;;;;;;;;;2304597;58;21113;-76
2022/01/12 09:41:02;;;;;;;56.40;20.15;;;;;;;;;;2303754;58;21110;-76
2022/01/12 09:43:33;;;;;;;44.72;17.00;;;;;;;;;;2304471;58;21125;-76
2022/01/12 09:46:00;;;;;;;57.33;19.67;;;;;;;;;;2304406;58;21426;-75
2022/01/12 09:48:33;;;;;;;68.40;19.02;;;;;;;;;;2304458;58;21098;-76
2022/01/12 09:51:04;;;;;;;59.35;20.50;;;;;;;;;;2303713;58;21517;-76
2022/01/12 09:53:31;;;;;;;60.03;18.30;;;;;;;;;;2303718;58;21069;-76
2022/01/12 09:55:58;;;;;;;44.33;17.33;;;;;;;;;;2304518;58;21073;-76
2022/01/12 09:58:32;;;;;;;57.62;18.62;;;;;;;;;;2304359;58;21073;-76
2022/01/12 10:01:00;;;;;;;54.00;19.73;;;;;;;;;;2304261;58;21070;-76
2022/01/12 10:03:27;;;;;;;56.45;17.98;;;;;;;;;;2304058;58;21046;-76
2022/01/12 10:05:55;;;;;;;57.53;19.58;;;;;;;;;;2304366;58;21038;-76
2022/01/12 10:08:22;;;;;;;53.10;18.70;;;;;;;;;;2304296;58;21042;-76
2022/01/12 10:11:01;;;;;;;50.25;17.87;;;;;;;;;;2303154;58;21596;-76
2022/01/12 10:13:28;;;;;;;56.35;20.42;;;;;;;;;;2304249;58;21097;-76
2022/01/12 10:15:56;;;;;;;54.55;19.15;;;;;;;;;;2304222;58;21050;-76
2022/01/12 10:18:23;;;;;;;55.50;17.58;;;;;;;;;;2304255;58;21141;-75
2022/01/12 10:20:51;;;;;;;54.10;17.98;;;;;;;;;;2387987;54;21168;-76
2022/01/12 10:23:22;;;;;;;59.42;20.65;;;;;;;;;;2304233;58;21057;-76
2022/01/12 10:25:49;;;;;;;54.83;17.83;;;;;;;;;;2351823;53;68979;-81
2022/01/12 10:28:18;;;;;;;67.90;21.67;;;;;;;;;;2577718;53;21107;-81
2022/01/12 10:30:55;;;;;;;57.97;19.48;;;;;;;;;;2333037;57;21083;-81
2022/01/12 10:33:24;;;;;;;55.95;20.08;;;;;;;;;;2333952;57;21294;-82
2022/01/12 10:35:56;;;;;;;53.90;20.02;;;;;;;;;;2325661;57;21106;-81
2022/01/12 10:38:23;;;;;;;51.28;18.08;;;;;;;;;;2307320;58;21062;-81
2022/01/12 10:40:51;;;;;;;49.30;17.33;;;;;;;;;;2545196;54;21082;-80
2022/01/12 10:43:28;;;;;;;38.42;15.30;;;;;;;;;;2306638;58;21073;-79
2022/01/12 10:45:56;;;;;;;43.47;16.83;;;;;;;;;;2306915;58;21133;-81
2022/01/12 10:48:24;;;;;;;45.45;16.73;;;;;;;;;;2545148;54;21145;-80
2022/01/12 10:50:54;;;;;;;43.00;15.60;;;;;;;;;;2307377;58;21054;-80
2022/01/12 10:53:28;;;;;;;45.58;15.00;;;;;;;;;;2545474;54;21094;-78
2022/01/12 10:56:06;;;;;;;48.63;15.88;;;;;;;;;;2543635;54;21038;-78
2022/01/12 10:58:33;;;;;;;37.75;15.00;;;;;;;;;;2305547;58;21134;-79
2022/01/12 11:01:01;;;;;;;36.95;14.55;;;;;;;;;;2305414;58;21042;-78
2022/01/12 11:03:28;;;;;;;29.70;13.23;;;;;;;;;;2543568;54;21044;-77
2022/01/12 11:05:56;;;;;;;38.40;15.50;;;;;;;;;;2305920;58;21045;-78
2022/01/12 11:08:24;;;;;;;33.28;11.75;;;;;;;;;;2543932;54;21073;-77
2022/01/12 11:10:52;;;;;;;37.10;11.10;;;;;;;;;;2305384;58;21117;-78
2022/01/12 11:13:19;;;;;;;35.83;12.70;;;;;;;;;;2306398;58;21082;-78
2022/01/12 11:15:46;;;;;;;44.53;13.77;;;;;;;;;;2306091;58;21054;-78
2022/01/12 11:18:14;;;;;;;34.72;13.93;;;;;;;;;;2306230;58;21053;-79
2022/01/12 11:20:41;;;;;;;46.42;13.62;;;;;;;;;;2543771;54;21098;-78
2022/01/12 11:23:11;;;;;;;30.27;11.18;;;;;;;;;;2306277;58;21113;-79
2022/01/12 11:25:39;;;;;;;33.63;13.55;;;;;;;;;;2543982;54;21098;-78
2022/01/12 11:28:11;;;;;;;34.20;11.60;;;;;;;;;;2544268;54;21140;-78
2022/01/12 11:30:39;;;;;;;34.85;10.95;;;;;;;;;;2543105;54;21037;-78
2022/01/12 11:33:08;;;;;;;28.45;10.98;;;;;;;;;;2305443;58;21050;-78
2022/01/12 11:35:37;;;;;;;27.13;9.60;;;;;;;;;;2542124;54;21121;-78
2022/01/12 11:38:04;;;;;;;28.08;9.38;;;;;;;;;;2305495;58;21118;-77
2022/01/12 11:40:35;;;;;;;20.90;8.18;;;;;;;;;;2542517;54;21062;-78
2022/01/12 11:43:03;;;;;;;26.52;9.15;;;;;;;;;;2305329;58;21193;-77
2022/01/12 11:45:30;;;;;;;23.42;8.10;;;;;;;;;;2304821;58;21062;-78
2022/01/12 11:47:57;;;;;;;26.45;9.30;;;;;;;;;;2305317;58;21058;-78
2022/01/12 11:50:25;;;;;;;28.12;8.73;;;;;;;;;;2304813;58;21145;-78
2022/01/12 11:52:52;;;;;;;31.98;9.00;;;;;;;;;;2305242;58;21045;-78
2022/01/12 11:55:20;;;;;;;23.77;8.35;;;;;;;;;;2305396;58;21170;-78
2022/01/12 11:57:48;;;;;;;23.65;8.18;;;;;;;;;;2543004;54;21117;-79
2022/01/12 12:00:17;;;;;;;23.15;7.55;;;;;;;;;;2543093;54;21182;-78
2022/01/12 12:02:45;;;;;;;20.45;8.55;;;;;;;;;;2305120;58;21113;-78
2022/01/12 12:05:13;;;;;;;25.60;7.37;;;;;;;;;;2305214;58;21295;-77
2022/01/12 12:07:44;;;;;;;28.12;7.50;;;;;;;;;;2542786;54;21097;-78
2022/01/12 12:10:13;;;;;;;20.65;6.80;;;;;;;;;;2303864;58;21114;-78
2022/01/12 12:12:40;;;;;;;21.83;6.05;;;;;;;;;;2304699;58;21181;-78
2022/01/12 12:15:08;;;;;;;24.95;6.75;;;;;;;;;;2304598;58;21233;-78
2022/01/12 12:17:36;;;;;;;20.12;5.70;;;;;;;;;;2305030;58;21058;-77
2022/01/12 12:20:04;;;;;;;27.40;6.70;;;;;;;;;;2304166;58;21058;-78
2022/01/12 12:22:32;;;;;;;28.77;7.62;;;;;;;;;;2303888;58;21129;-76
2022/01/12 12:25:02;;;;;;;19.87;6.05;;;;;;;;;;2541714;54;21138;-78
2022/01/12 12:27:30;;;;;;;27.58;5.85;;;;;;;;;;2541423;54;21062;-77
2022/01/12 12:29:58;;;;;;;18.80;5.45;;;;;;;;;;2303448;58;21057;-78
2022/01/12 12:32:34;;;;;;;19.02;5.85;;;;;;;;;;2303970;58;21070;-78
2022/01/12 12:35:04;;;;;;;25.45;5.82;;;;;;;;;;2303910;58;21130;-78
2022/01/12 12:37:36;;;;;;;18.30;5.80;;;;;;;;;;2305604;58;21054;-78
2022/01/12 12:40:12;;;;;;;22.52;5.70;;;;;;;;;;2305512;58;21066;-79
2022/01/12 12:45:14;;;;;;;21.98;5.75;;;;;;;;;;2334977;57;27779;-75
2022/01/12 12:47:43;;;;;;;26.83;5.30;;;;;;;;;;2593885;53;21046;-75
2022/01/12 12:50:14;;;;;;;16.35;4.53;;;;;;;;;;2362821;56;21109;-75
2022/01/12 12:52:41;;;;;;;19.73;4.53;;;;;;;;;;2374726;56;21529;-75
2022/01/12 12:55:12;;;;;;;22.70;5.00;;;;;;;;;;2374592;56;21173;-75
2022/01/12 12:57:47;;;;;;;16.23;4.70;;;;;;;;;;2375054;56;21027;-75
2022/01/12 13:00:16;;;;;;;16.65;5.30;;;;;;;;;;2374286;56;21110;-75
2022/01/12 13:02:44;;;;;;;24.73;5.95;;;;;;;;;;2375162;56;21112;-74
2022/01/12 13:05:13;;;;;;;16.30;5.12;;;;;;;;;;2374519;56;21040;-75
2022/01/12 13:07:41;;;;;;;23.23;5.87;;;;;;;;;;2374881;56;21051;-75
2022/01/12 13:10:11;;;;;;;25.35;6.50;;;;;;;;;;2374069;56;21050;-75
2022/01/12 13:12:38;;;;;;;23.70;5.70;;;;;;;;;;2375198;56;21101;-75
2022/01/12 13:15:07;;;;;;;24.92;6.97;;;;;;;;;;2374903;56;21110;-74
2022/01/12 13:17:37;;;;;;;20.42;5.75;;;;;;;;;;2374928;56;21114;-75
2022/01/12 13:22:51;;;;;;;19.92;6.85;;;;;;;;;;2374698;56;21525;-74
2022/01/12 13:25:19;;;;;;;20.58;6.53;;;;;;;;;;2374568;56;21050;-75
2022/01/12 13:27:50;;;;;;;21.52;6.35;;;;;;;;;;2374814;56;21038;-75
2022/01/12 13:30:24;;;;;;;20.02;6.37;;;;;;;;;;2374212;56;21030;-75
2022/01/12 13:32:52;;;;;;;26.33;6.47;;;;;;;;;;2374706;56;21107;-75
2022/01/12 13:35:25;;;;;;;21.55;5.25;;;;;;;;;;2374896;56;21031;-75
2022/01/12 13:37:54;;;;;;;19.52;5.82;;;;;;;;;;2311802;56;21401;-75
2022/01/12 13:40:22;;;;;;;18.70;5.82;;;;;;;;;;2374634;56;21095;-74
2022/01/12 13:42:49;;;;;;;23.92;5.12;;;;;;;;;;2374630;56;21059;-75
2022/01/12 13:45:18;;;;;;;18.70;5.32;;;;;;;;;;2628267;52;21038;-75
2022/01/12 13:47:53;;;;;;;29.60;6.68;;;;;;;;;;2373729;56;21090;-75
2022/01/12 13:50:22;;;;;;;24.48;6.25;;;;;;;;;;2374392;56;21090;-75
2022/01/12 13:52:55;;;;;;;22.58;5.85;;;;;;;;;;2374109;56;21067;-75
2022/01/12 13:55:23;;;;;;;14.52;5.43;;;;;;;;;;2374408;56;21032;-75
2022/01/12 13:57:56;;;;;;;20.30;7.40;;;;;;;;;;2626961;52;21165;-74
2022/01/12 14:00:24;;;;;;;21.73;7.18;;;;;;;;;;2373750;56;21058;-75
2022/01/12 14:02:51;;;;;;;22.55;6.70;;;;;;;;;;2374023;56;21035;-75
2022/01/12 14:05:20;;;;;;;25.92;7.40;;;;;;;;;;2626214;52;21584;-75
2022/01/12 14:07:59;;;;;;;26.70;7.40;;;;;;;;;;2373289;56;21043;-75
2022/01/12 14:10:29;;;;;;;18.73;7.05;;;;;;;;;;2373221;56;21058;-75
2022/01/12 14:12:56;;;;;;;22.08;6.55;;;;;;;;;;2373914;56;21098;-75
2022/01/12 14:15:25;;;;;;;24.58;7.28;;;;;;;;;;2373556;56;21196;-75
2022/01/12 14:17:53;;;;;;;24.67;7.65;;;;;;;;;;2373944;56;21557;-74
2022/01/12 14:20:27;;;;;;;25.73;7.45;;;;;;;;;;2626331;52;21075;-74
2022/01/12 14:22:55;;;;;;;25.60;8.40;;;;;;;;;;2627446;52;21024;-74
2022/01/12 14:25:34;;;;;;;21.20;7.82;;;;;;;;;;2373759;56;21111;-75
2022/01/12 14:28:01;;;;;;;20.00;7.00;;;;;;;;;;2626937;52;21031;-75
2022/01/12 14:30:28;;;;;;;20.55;7.10;;;;;;;;;;2372589;56;21833;-75
2022/01/12 14:32:55;;;;;;;33.47;8.07;;;;;;;;;;2373319;56;21074;-75
2022/01/12 14:35:23;;;;;;;26.80;8.95;;;;;;;;;;2373827;56;21142;-75
2022/01/12 14:37:51;;;;;;;21.77;7.68;;;;;;;;;;2373522;56;21546;-74
2022/01/12 14:40:19;;;;;;;21.92;7.85;;;;;;;;;;2373311;56;21066;-75
2022/01/12 14:42:47;;;;;;;19.23;6.97;;;;;;;;;;2373788;56;21054;-75
2022/01/12 14:45:15;;;;;;;25.20;8.55;;;;;;;;;;2373511;56;21565;-75
2022/01/12 14:47:43;;;;;;;23.85;7.22;;;;;;;;;;2373716;56;21047;-76
2022/01/12 14:50:10;;;;;;;25.00;7.50;;;;;;;;;;2373386;56;21098;-75
2022/01/12 14:52:38;;;;;;;22.02;6.97;;;;;;;;;;2373445;56;21035;-75
2022/01/12 14:55:06;;;;;;;28.65;8.75;;;;;;;;;;2373849;56;21059;-75
2022/01/12 14:57:33;;;;;;;25.00;7.32;;;;;;;;;;2627373;52;21032;-75
2022/01/12 15:00:02;;;;;;;26.12;8.45;;;;;;;;;;2373253;56;21094;-74
2022/01/12 15:02:29;;;;;;;27.73;8.57;;;;;;;;;;2374089;56;21039;-75
2022/01/12 15:04:56;;;;;;;19.42;7.28;;;;;;;;;;2373232;56;21051;-77
2022/01/12 15:07:23;;;;;;;25.23;7.47;;;;;;;;;;2374094;56;21043;-76
2022/01/12 15:09:50;;;;;;;26.62;8.30;;;;;;;;;;2373569;56;21091;-77
2022/01/12 15:12:25;;;;;;;20.80;7.40;;;;;;;;;;2373863;56;21103;-76
2022/01/12 15:14:58;;;;;;;28.08;10.02;;;;;;;;;;2374360;56;21224;-75
2022/01/12 15:17:25;;;;;;;24.25;7.55;;;;;;;;;;2373933;56;21043;-74
2022/01/12 15:19:52;;;;;;;25.52;7.40;;;;;;;;;;2372687;56;21036;-75
2022/01/12 15:22:20;;;;;;;24.10;7.95;;;;;;;;;;2626934;52;21094;-76
2022/01/12 15:24:47;;;;;;;24.33;8.23;;;;;;;;;;2373906;56;21142;-75
2022/01/12 15:27:15;;;;;;;22.50;8.27;;;;;;;;;;2627177;52;21071;-75
2022/01/12 15:29:42;;;;;;;21.27;7.10;;;;;;;;;;2373387;56;21035;-75